createdAt,value
2019-04-29T00:00:51.298Z,14.03
2019-04-29T00:03:20.722Z,14.03
2019-04-29T00:05:50.189Z,14.25
2019-04-29T00:08:19.864Z,14.15
2019-04-29T00:10:49.268Z,14.02
2019-04-29T00:13:19.452Z,14.41
2019-04-29T00:15:58.594Z,14.14
2019-04-29T00:18:39.169Z,14.13
2019-04-29T00:21:08.560Z,14.26
2019-04-29T00:23:37.912Z,14.40
2019-04-29T00:26:07.309Z,14.43
2019-04-29T00:28:36.674Z,14.23
2019-04-29T00:31:06.328Z,14.16
2019-04-29T00:33:35.697Z,14.01
2019-04-29T00:36:05.101Z,13.89
2019-04-29T00:38:52.350Z,13.76
2019-04-29T00:41:38.627Z,13.79
2019-04-29T00:44:09.947Z,13.77
2019-04-29T00:46:39.369Z,13.81
2019-04-29T00:49:08.887Z,13.78
2019-04-29T00:51:38.300Z,13.73
2019-04-29T00:54:18.272Z,13.71
2019-04-29T00:56:47.590Z,13.83
2019-04-29T00:59:16.920Z,13.79
2019-04-29T01:01:46.359Z,13.83
2019-04-29T01:04:15.781Z,13.87
2019-04-29T01:06:45.143Z,13.97
2019-04-29T01:09:14.693Z,14.25
2019-04-29T01:11:44.102Z,14.17
2019-04-29T01:14:13.468Z,13.94
2019-04-29T01:16:42.840Z,14.05
2019-04-29T01:19:12.268Z,13.92
2019-04-29T01:21:41.647Z,13.80
2019-04-29T01:24:11.075Z,13.79
2019-04-29T01:27:01.034Z,14.02
2019-04-29T01:29:30.587Z,13.73
2019-04-29T01:32:00.065Z,13.96
2019-04-29T01:34:34.306Z,13.91
2019-04-29T01:37:03.674Z,13.88
2019-04-29T01:39:47.277Z,13.99
2019-04-29T01:42:23.711Z,14.28
2019-04-29T01:44:53.141Z,14.44
2019-04-29T01:47:22.509Z,14.17
2019-04-29T01:49:51.863Z,14.05
2019-04-29T01:52:21.304Z,14.06
2019-04-29T01:54:50.763Z,13.67
2019-04-29T01:57:20.163Z,13.75
2019-04-29T01:59:49.621Z,12.93
2019-04-29T02:02:19.060Z,13.09
2019-04-29T02:04:48.497Z,13.15
2019-04-29T02:07:17.948Z,12.93
2019-04-29T02:10:11.431Z,12.68
2019-04-29T02:12:40.802Z,12.67
2019-04-29T02:15:10.221Z,12.82
2019-04-29T02:17:39.590Z,12.97
2019-04-29T02:20:09.217Z,13.07
2019-04-29T02:22:53.635Z,12.81
2019-04-29T02:25:28.829Z,13.00
2019-04-29T02:27:58.196Z,13.17
2019-04-29T02:30:42.180Z,13.20
2019-04-29T02:33:11.533Z,13.19
2019-04-29T02:35:41.137Z,13.13
2019-04-29T02:38:15.266Z,13.19
2019-04-29T02:40:51.709Z,13.21
2019-04-29T02:43:24.845Z,13.27
2019-04-29T02:45:54.300Z,13.18
2019-04-29T02:48:23.711Z,13.12
2019-04-29T02:50:53.149Z,13.26
2019-04-29T02:53:22.592Z,13.71
2019-04-29T02:55:53.754Z,13.94
2019-04-29T02:58:29.090Z,14.04
2019-04-29T03:01:17.500Z,13.93
2019-04-29T03:04:08.646Z,13.40
2019-04-29T03:06:38.113Z,13.94
2019-04-29T03:09:07.947Z,13.84
2019-04-29T03:11:37.303Z,14.04
2019-04-29T03:14:06.673Z,13.96
2019-04-29T03:16:36.034Z,13.97
2019-04-29T03:19:10.182Z,13.91
2019-04-29T03:21:47.541Z,14.21
2019-04-29T03:24:17.012Z,14.19
2019-04-29T03:26:46.348Z,14.32
2019-04-29T03:29:24.980Z,14.19
2019-04-29T03:31:55.770Z,14.09
2019-04-29T03:34:25.334Z,14.56
2019-04-29T03:36:54.816Z,14.38
2019-04-29T03:39:24.242Z,14.43
2019-04-29T03:41:53.662Z,14.21
2019-04-29T03:44:23.051Z,14.53
2019-04-29T03:46:52.407Z,14.57
2019-04-29T03:49:21.781Z,14.91
2019-04-29T03:51:51.131Z,14.67
2019-04-29T03:54:20.508Z,14.74
2019-04-29T03:56:49.860Z,14.83
2019-04-29T03:59:19.215Z,14.91
2019-04-29T04:01:55.977Z,14.70
2019-04-29T04:04:43.008Z,15.00
2019-04-29T04:07:30.319Z,15.15
2019-04-29T04:09:59.776Z,14.96
2019-04-29T04:12:29.130Z,15.02
2019-04-29T04:14:58.511Z,15.10
2019-04-29T04:17:42.899Z,14.98
2019-04-29T04:20:12.682Z,14.96
2019-04-29T04:22:48.577Z,15.18
2019-04-29T04:25:18.312Z,15.16
2019-04-29T04:27:48.165Z,15.02
2019-04-29T04:30:18.892Z,14.90
2019-04-29T04:32:48.339Z,15.16
2019-04-29T04:35:17.779Z,15.08
2019-04-29T04:37:47.144Z,15.10
2019-04-29T04:40:21.005Z,15.17
2019-04-29T04:42:50.546Z,15.00
2019-04-29T04:45:20.001Z,14.84
2019-04-29T04:47:49.354Z,14.71
2019-04-29T04:50:18.908Z,14.81
2019-04-29T04:52:48.271Z,14.85
2019-04-29T04:55:18.777Z,14.63
2019-04-29T04:57:48.174Z,14.68
2019-04-29T05:00:21.885Z,14.74
2019-04-29T05:02:51.307Z,14.89
2019-04-29T05:05:20.685Z,14.74
2019-04-29T05:07:50.048Z,14.84
2019-04-29T05:10:19.749Z,14.74
2019-04-29T05:12:49.112Z,14.59
2019-04-29T05:15:18.567Z,14.87
2019-04-29T05:17:48.117Z,14.84
2019-04-29T05:20:17.588Z,14.92
2019-04-29T05:22:59.499Z,15.12
2019-04-29T05:25:33.537Z,14.78
2019-04-29T05:28:03.590Z,15.12
2019-04-29T05:30:33.360Z,15.18
2019-04-29T05:33:02.794Z,15.29
2019-04-29T05:35:40.215Z,15.26
2019-04-29T05:38:25.427Z,15.36
2019-04-29T05:40:56.833Z,15.39
2019-04-29T05:43:34.004Z,15.35
2019-04-29T05:46:23.305Z,15.40
2019-04-29T05:48:52.988Z,15.47
2019-04-29T05:51:34.478Z,15.51
2019-04-29T05:54:04.645Z,15.58
2019-04-29T05:56:34.030Z,15.60
2019-04-29T05:59:03.461Z,15.59
2019-04-29T06:01:32.848Z,15.59
2019-04-29T06:04:02.273Z,15.59
2019-04-29T06:06:31.654Z,15.56
2019-04-29T06:09:01.013Z,15.54
2019-04-29T06:11:30.464Z,15.59
2019-04-29T06:13:59.798Z,15.64
2019-04-29T06:16:29.181Z,15.62
2019-04-29T06:19:00.413Z,15.63
2019-04-29T06:21:29.635Z,15.62
2019-04-29T06:23:59.408Z,15.61
2019-04-29T06:26:30.073Z,15.62
2019-04-29T06:28:59.474Z,15.75
2019-04-29T06:31:28.891Z,15.84
2019-04-29T06:34:00.645Z,15.87
2019-04-29T06:36:29.419Z,15.88
2019-04-29T06:38:58.805Z,15.83
2019-04-29T06:41:28.160Z,15.86
2019-04-29T06:44:00.687Z,15.78
2019-04-29T06:46:28.592Z,15.83
2019-04-29T06:49:09.603Z,15.78
2019-04-29T06:51:29.120Z,15.78
2019-04-29T06:53:58.495Z,15.81
2019-04-29T06:56:28.004Z,15.84
2019-04-29T06:58:58.645Z,15.82
2019-04-29T07:01:28.007Z,15.82
2019-04-29T07:03:59.859Z,15.84
2019-04-29T07:06:28.458Z,15.81
2019-04-29T07:08:57.821Z,15.82
2019-04-29T07:11:27.200Z,15.72
2019-04-29T07:13:57.681Z,15.73
2019-04-29T07:16:31.769Z,15.74
2019-04-29T07:18:58.675Z,15.75
2019-04-29T07:21:28.072Z,15.71
2019-04-29T07:23:57.509Z,15.80
2019-04-29T07:26:26.895Z,15.75
2019-04-29T07:28:56.316Z,15.70
2019-04-29T07:31:28.256Z,15.84
2019-04-29T07:33:57.923Z,15.84
2019-04-29T07:36:27.867Z,15.91
2019-04-29T07:38:57.235Z,15.86
2019-04-29T07:41:26.673Z,15.91
2019-04-29T07:43:56.098Z,15.88
2019-04-29T07:46:57.005Z,15.89
2019-04-29T07:49:12.756Z,15.93
2019-04-29T07:51:42.687Z,15.94
2019-04-29T07:54:16.130Z,15.98
2019-04-29T07:56:43.684Z,15.96
2019-04-29T07:59:13.128Z,15.94
2019-04-29T08:01:42.569Z,15.96
2019-04-29T08:04:12.014Z,15.98
2019-04-29T08:06:42.977Z,15.96
2019-04-29T08:09:13.125Z,15.88
2019-04-29T08:11:42.836Z,15.98
2019-04-29T08:14:12.638Z,15.99
2019-04-29T08:16:42.098Z,15.98
2019-04-29T08:19:11.581Z,15.95
2019-04-29T08:21:41.025Z,15.99
2019-04-29T08:24:11.604Z,16.00
2019-04-29T08:26:47.504Z,15.97
2019-04-29T08:29:12.640Z,15.94
2019-04-29T08:31:42.004Z,16.06
2019-04-29T08:34:11.463Z,16.02
2019-04-29T08:36:40.861Z,16.08
2019-04-29T08:39:10.352Z,16.08
2019-04-29T08:41:39.790Z,16.12
2019-04-29T08:44:18.212Z,16.14
2019-04-29T08:46:54.032Z,16.22
2019-04-29T08:49:23.450Z,16.33
2019-04-29T08:51:52.825Z,16.30
2019-04-29T08:54:22.280Z,16.31
2019-04-29T08:57:02.796Z,16.34
2019-04-29T08:59:24.506Z,16.34
2019-04-29T09:01:54.158Z,16.34
2019-04-29T09:04:23.550Z,16.36
2019-04-29T09:06:53.046Z,16.35
2019-04-29T09:09:29.118Z,16.36
2019-04-29T09:11:53.466Z,16.33
2019-04-29T09:14:22.814Z,16.33
2019-04-29T09:16:52.196Z,16.31
2019-04-29T09:19:21.613Z,16.32
2019-04-29T09:21:54.829Z,16.28
2019-04-29T09:24:24.184Z,16.30
2019-04-29T09:27:04.988Z,16.27
2019-04-29T09:29:34.601Z,16.37
2019-04-29T09:32:04.559Z,16.33
2019-04-29T09:34:34.106Z,16.25
2019-04-29T09:37:03.535Z,16.32
2019-04-29T09:39:42.974Z,16.35
2019-04-29T09:42:31.061Z,16.36
2019-04-29T09:45:18.624Z,16.37
2019-04-29T09:47:45.549Z,16.40
2019-04-29T09:50:15.052Z,16.42
2019-04-29T09:52:44.439Z,16.39
2019-04-29T09:55:13.975Z,16.47
2019-04-29T09:57:43.362Z,16.40
2019-04-29T10:00:20.763Z,16.43
2019-04-29T10:02:58.281Z,16.42
2019-04-29T10:05:33.014Z,16.43
2019-04-29T10:08:03.527Z,16.41
2019-04-29T10:10:33.039Z,16.47
2019-04-29T10:13:02.445Z,16.43
2019-04-29T10:15:45.701Z,16.51
2019-04-29T10:18:29.637Z,16.52
2019-04-29T10:20:59.319Z,16.49
2019-04-29T10:23:38.250Z,16.46
2019-04-29T10:26:07.748Z,16.52
2019-04-29T10:28:41.703Z,16.48
2019-04-29T10:31:11.325Z,16.47
2019-04-29T10:33:40.799Z,16.47
2019-04-29T10:36:10.171Z,16.53
2019-04-29T10:38:40.458Z,16.51
2019-04-29T10:41:19.013Z,16.51
2019-04-29T10:44:08.690Z,16.54
2019-04-29T10:47:03.276Z,16.57
2019-04-29T10:49:39.162Z,16.59
2019-04-29T10:52:08.082Z,16.56
2019-04-29T10:54:37.450Z,16.59
2019-04-29T10:57:10.514Z,16.64
2019-04-29T10:59:44.571Z,16.61
2019-04-29T11:02:32.062Z,16.57
2019-04-29T11:05:19.709Z,16.61
2019-04-29T11:07:52.547Z,16.62
2019-04-29T11:10:27.898Z,16.62
2019-04-29T11:12:57.476Z,16.61
2019-04-29T11:15:37.263Z,16.63
2019-04-29T11:18:07.102Z,16.60
2019-04-29T11:20:36.599Z,16.64
2019-04-29T11:23:21.369Z,16.64
2019-04-29T11:26:22.772Z,16.65
2019-04-29T11:28:53.108Z,16.65
2019-04-29T11:31:22.574Z,16.64
2019-04-29T11:34:26.178Z,16.56
2019-04-29T11:36:55.614Z,16.56
2019-04-29T11:39:25.049Z,16.58
2019-04-29T11:41:59.210Z,16.58
2019-04-29T11:44:26.631Z,16.57
2019-04-29T11:46:56.882Z,16.57
2019-04-29T11:49:41.197Z,16.57
2019-04-29T11:52:10.638Z,16.57
2019-04-29T11:54:40.012Z,16.62
2019-04-29T11:57:13.087Z,16.61
2019-04-29T11:59:54.487Z,16.61
2019-04-29T12:02:44.947Z,16.61
2019-04-29T12:05:12.158Z,16.60
2019-04-29T12:07:41.721Z,16.61
2019-04-29T12:10:11.732Z,16.62
2019-04-29T12:12:43.625Z,16.62
2019-04-29T12:15:19.877Z,16.62
2019-04-29T12:18:07.484Z,16.63
2019-04-29T12:21:11.462Z,16.63
2019-04-29T12:23:40.797Z,16.63
2019-04-29T12:26:10.569Z,16.66
2019-04-29T12:28:42.868Z,16.63
2019-04-29T12:31:32.366Z,16.64
2019-04-29T12:34:23.055Z,16.65
2019-04-29T12:36:56.768Z,16.63
2019-04-29T12:39:55.007Z,16.56
2019-04-29T12:42:46.461Z,16.58
2019-04-29T12:45:23.610Z,16.59
2019-04-29T12:47:52.978Z,16.57
2019-04-29T12:50:23.123Z,16.56
2019-04-29T12:52:52.661Z,16.57
2019-04-29T12:55:43.735Z,16.56
2019-04-29T12:57:59.532Z,16.58
2019-04-29T13:00:31.491Z,16.56
2019-04-29T13:03:20.055Z,16.56
2019-04-29T13:06:02.594Z,16.55
2019-04-29T13:08:36.181Z,16.52
2019-04-29T13:11:06.954Z,16.53
2019-04-29T13:13:36.308Z,16.52
2019-04-29T13:16:23.773Z,16.49
2019-04-29T13:19:20.581Z,16.48
2019-04-29T13:21:49.571Z,16.50
2019-04-29T13:24:26.530Z,16.46
2019-04-29T13:26:50.093Z,16.47
2019-04-29T13:29:27.008Z,16.50
2019-04-29T13:31:50.687Z,16.50
2019-04-29T13:34:33.245Z,16.50
2019-04-29T13:37:07.383Z,16.51
2019-04-29T13:39:39.593Z,16.52
2019-04-29T13:42:09.214Z,16.50
2019-04-29T13:44:41.801Z,16.50
2019-04-29T13:47:29.213Z,16.51
2019-04-29T13:50:17.267Z,16.53
2019-04-29T13:52:33.354Z,16.52
2019-04-29T13:55:16.563Z,16.50
2019-04-29T13:57:33.932Z,16.50
2019-04-29T14:00:24.662Z,16.49
2019-04-29T14:02:59.351Z,16.49
2019-04-29T14:05:32.510Z,16.50
2019-04-29T14:08:00.019Z,16.37
2019-04-29T14:10:29.446Z,16.40
2019-04-29T14:13:09.620Z,16.41
2019-04-29T14:15:33.999Z,16.41
2019-04-29T14:18:01.529Z,16.42
2019-04-29T14:20:31.343Z,16.39
2019-04-29T14:23:00.694Z,16.39
2019-04-29T14:25:30.039Z,16.40
2019-04-29T14:27:59.444Z,16.40
2019-04-29T14:30:38.546Z,16.41
2019-04-29T14:33:02.066Z,16.41
2019-04-29T14:35:49.959Z,16.40
2019-04-29T14:38:19.322Z,16.41
2019-04-29T14:40:48.747Z,16.39
2019-04-29T14:43:35.851Z,16.35
2019-04-29T14:46:30.735Z,16.33
2019-04-29T14:49:07.290Z,16.31
2019-04-29T14:51:38.036Z,16.32
2019-04-29T14:54:07.667Z,16.32
2019-04-29T14:56:37.166Z,16.27
2019-04-29T14:59:07.624Z,16.30
2019-04-29T15:01:45.842Z,16.30
2019-04-29T15:04:18.963Z,16.30
2019-04-29T15:06:48.328Z,16.30
2019-04-29T15:09:19.985Z,16.24
2019-04-29T15:12:03.423Z,16.26
2019-04-29T15:15:00.786Z,16.26
2019-04-29T15:17:40.411Z,16.24
2019-04-29T15:20:18.696Z,16.22
2019-04-29T15:22:48.095Z,16.20
2019-04-29T15:25:21.012Z,16.16
2019-04-29T15:27:48.622Z,16.05
2019-04-29T15:30:18.327Z,16.12
2019-04-29T15:32:47.710Z,16.09
2019-04-29T15:35:19.922Z,16.05
2019-04-29T15:37:48.322Z,16.06
2019-04-29T15:40:20.672Z,16.07
2019-04-29T15:42:52.737Z,16.07
2019-04-29T15:45:19.905Z,15.85
2019-04-29T15:47:49.357Z,16.01
2019-04-29T15:50:19.625Z,15.87
2019-04-29T15:52:49.129Z,15.95
2019-04-29T15:55:18.607Z,15.90
2019-04-29T15:57:50.421Z,15.93
2019-04-29T16:00:22.523Z,15.78
2019-04-29T16:02:51.285Z,15.93
2019-04-29T16:06:19.284Z,15.91
2019-04-29T16:08:45.798Z,15.86
2019-04-29T16:11:33.724Z,15.93
2019-04-29T16:14:09.592Z,15.94
2019-04-29T16:16:35.965Z,15.96
2019-04-29T16:19:08.130Z,15.98
2019-04-29T16:21:39.058Z,15.93
2019-04-29T16:24:24.920Z,15.85
2019-04-29T16:26:38.968Z,15.87
2019-04-29T16:29:13.229Z,15.90
2019-04-29T16:31:39.429Z,15.84
2019-04-29T16:34:08.821Z,15.76
2019-04-29T16:36:43.803Z,15.66
2019-04-29T16:39:09.590Z,15.80
2019-04-29T16:42:01.293Z,15.80
2019-04-29T16:44:36.247Z,15.71
2019-04-29T16:47:07.277Z,15.64
2019-04-29T16:49:33.180Z,15.64
2019-04-29T16:52:07.280Z,15.76
2019-04-29T16:54:36.818Z,15.66
2019-04-29T16:57:07.422Z,15.59
2019-04-29T16:59:36.833Z,15.67
2019-04-29T17:02:06.269Z,15.67
2019-04-29T17:04:35.628Z,15.56
2019-04-29T17:07:13.827Z,15.61
2019-04-29T17:09:58.148Z,15.44
2019-04-29T17:12:35.695Z,15.44
2019-04-29T17:15:14.822Z,15.38
2019-04-29T17:17:31.488Z,15.29
2019-04-29T17:20:03.493Z,15.13
2019-04-29T17:22:35.601Z,15.04
2019-04-29T17:25:04.333Z,15.35
2019-04-29T17:27:50.854Z,15.18
2019-04-29T17:30:38.416Z,14.69
2019-04-29T17:33:26.597Z,14.85
2019-04-29T17:35:47.853Z,14.31
2019-04-29T17:38:18.083Z,14.61
2019-04-29T17:40:51.116Z,14.55
2019-04-29T17:43:38.288Z,14.32
2019-04-29T17:46:25.748Z,14.28
2019-04-29T17:49:02.776Z,14.39
2019-04-29T17:51:33.967Z,14.59
2019-04-29T17:54:05.404Z,14.67
2019-04-29T17:56:47.781Z,14.83
2019-04-29T17:59:40.733Z,15.16
2019-04-29T18:02:29.318Z,14.90
2019-04-29T18:05:16.891Z,14.67
2019-04-29T18:07:52.092Z,14.43
2019-04-29T18:10:35.102Z,14.46
2019-04-29T18:13:06.559Z,14.28
2019-04-29T18:15:57.924Z,14.02
2019-04-29T18:18:17.687Z,14.12
2019-04-29T18:21:43.273Z,13.44
2019-04-29T18:24:19.991Z,13.85
2019-04-29T18:26:56.935Z,13.15
2019-04-29T18:29:26.487Z,13.45
2019-04-29T18:31:56.127Z,13.74
2019-04-29T18:34:29.375Z,13.73
2019-04-29T18:37:00.443Z,13.78
2019-04-29T18:39:31.612Z,13.98
2019-04-29T18:42:03.363Z,14.29
2019-04-29T18:44:32.658Z,14.17
2019-04-29T18:47:02.219Z,13.59
2019-04-29T18:49:31.874Z,13.78
2019-04-29T18:52:02.143Z,13.81
2019-04-29T18:54:32.638Z,13.66
2019-04-29T18:57:02.135Z,13.34
2019-04-29T18:59:33.436Z,13.98
2019-04-29T19:02:07.734Z,14.03
2019-04-29T19:04:46.819Z,13.66
2019-04-29T19:07:17.126Z,13.00
2019-04-29T19:09:47.237Z,12.76
2019-04-29T19:12:16.898Z,13.36
2019-04-29T19:14:47.804Z,12.62
2019-04-29T19:17:17.513Z,12.58
2019-04-29T19:19:47.001Z,12.53
2019-04-29T19:22:16.509Z,12.58
2019-04-29T19:24:48.025Z,12.54
2019-04-29T19:27:17.461Z,12.28
2019-04-29T19:29:47.037Z,12.05
2019-04-29T19:32:18.834Z,11.71
2019-04-29T19:34:50.202Z,11.48
2019-04-29T19:37:19.280Z,12.66
2019-04-29T19:39:52.497Z,12.01
2019-04-29T19:42:29.085Z,11.65
2019-04-29T19:44:51.185Z,11.62
2019-04-29T19:47:20.754Z,11.54
2019-04-29T19:49:50.252Z,10.97
2019-04-29T19:52:30.502Z,12.22
2019-04-29T19:54:50.962Z,12.16
2019-04-29T19:57:20.487Z,11.80
2019-04-29T19:59:51.950Z,11.39
2019-04-29T20:02:22.173Z,11.72
2019-04-29T20:05:04.998Z,11.92
2019-04-29T20:07:40.905Z,12.07
2019-04-29T20:10:08.355Z,11.76
2019-04-29T20:12:36.948Z,11.86
2019-04-29T20:15:08.497Z,12.00
2019-04-29T20:18:06.558Z,11.56
2019-04-29T20:20:40.343Z,11.72
2019-04-29T20:23:10.211Z,11.09
2019-04-29T20:25:40.051Z,11.23
2019-04-29T20:28:17.042Z,11.09
2019-04-29T20:30:41.119Z,10.62
2019-04-29T20:33:12.648Z,10.98
2019-04-29T20:35:45.399Z,11.04
2019-04-29T20:38:15.550Z,10.86
2019-04-29T20:40:46.441Z,10.96
2019-04-29T20:43:16.230Z,11.02
2019-04-29T20:45:46.115Z,11.19
2019-04-29T20:48:19.370Z,11.15
2019-04-29T20:50:52.818Z,10.68
2019-04-29T20:53:30.889Z,11.06
2019-04-29T20:56:10.429Z,11.14
2019-04-29T20:58:33.224Z,11.02
2019-04-29T21:01:10.669Z,11.37
2019-04-29T21:03:36.071Z,11.11
2019-04-29T21:06:06.307Z,10.99
2019-04-29T21:08:35.958Z,11.33
2019-04-29T21:11:14.338Z,11.53
2019-04-29T21:13:55.596Z,11.20
2019-04-29T21:16:30.872Z,11.38
2019-04-29T21:19:08.820Z,11.09
2019-04-29T21:21:41.875Z,11.16
2019-04-29T21:24:13.720Z,11.12
2019-04-29T21:26:44.461Z,11.43
2019-04-29T21:29:18.121Z,11.29
2019-04-29T21:31:45.977Z,10.79
2019-04-29T21:34:17.494Z,10.65
2019-04-29T21:36:55.413Z,10.89
2019-04-29T21:39:37.915Z,10.95
2019-04-29T21:42:28.090Z,11.18
2019-04-29T21:44:58.696Z,11.46
2019-04-29T21:47:32.042Z,10.86
2019-04-29T21:49:59.161Z,11.35
2019-04-29T21:52:28.676Z,11.60
2019-04-29T21:54:58.201Z,11.01
2019-04-29T21:57:27.716Z,11.67
2019-04-29T21:59:57.244Z,11.00
2019-04-29T22:02:26.819Z,11.09
2019-04-29T22:04:56.408Z,10.93
2019-04-29T22:07:25.960Z,10.91
2019-04-29T22:09:55.708Z,10.98
2019-04-29T22:12:25.236Z,11.35
2019-04-29T22:14:56.441Z,10.92
2019-04-29T22:17:32.865Z,10.82
2019-04-29T22:20:03.946Z,10.98
2019-04-29T22:22:30.661Z,10.89
2019-04-29T22:25:07.988Z,11.32
2019-04-29T22:27:34.220Z,11.48
2019-04-29T22:30:03.055Z,11.13
2019-04-29T22:32:32.558Z,10.98
2019-04-29T22:35:02.069Z,11.24
2019-04-29T22:37:34.680Z,10.84
2019-04-29T22:40:04.379Z,10.96
2019-04-29T22:43:05.137Z,11.02
2019-04-29T22:45:33.845Z,10.85
2019-04-29T22:48:14.189Z,10.73
2019-04-29T22:50:33.706Z,11.00
2019-04-29T22:53:07.362Z,11.47
2019-04-29T22:55:38.795Z,11.17
2019-04-29T22:58:09.728Z,11.45
2019-04-29T23:00:38.664Z,11.34
2019-04-29T23:03:08.257Z,10.90
2019-04-29T23:05:38.031Z,11.06
2019-04-29T23:08:07.696Z,11.10
2019-04-29T23:10:37.213Z,11.09
2019-04-29T23:13:07.237Z,10.61
2019-04-29T23:15:36.750Z,11.14
2019-04-29T23:18:06.968Z,10.63
2019-04-29T23:20:55.345Z,11.19
2019-04-29T23:23:33.487Z,11.31
2019-04-29T23:26:04.157Z,11.00
2019-04-29T23:28:33.260Z,11.17
2019-04-29T23:31:02.877Z,11.01
2019-04-29T23:33:32.405Z,10.65
2019-04-29T23:36:01.913Z,10.61
2019-04-29T23:38:31.433Z,10.86
2019-04-29T23:41:00.948Z,11.11
2019-04-29T23:43:30.559Z,11.00
2019-04-29T23:46:00.652Z,10.66
2019-04-29T23:48:38.581Z,11.00
2019-04-29T23:51:01.556Z,11.34
2019-04-29T23:53:31.083Z,10.94
2019-04-29T23:56:05.590Z,11.02
2019-04-29T23:58:46.774Z,11.04
